createdAt,value
2022-08-29T00:00:42.807Z,13.12
2022-08-29T00:05:42.745Z,13.14
2022-08-29T00:11:53.494Z,13.14
2022-08-29T00:16:53.607Z,13.01
2022-08-29T00:21:53.392Z,12.85
2022-08-29T00:26:53.330Z,12.74
2022-08-29T00:31:53.339Z,12.70
2022-08-29T00:36:53.221Z,12.65
2022-08-29T00:41:53.168Z,12.60
2022-08-29T00:46:53.120Z,12.53
2022-08-29T00:51:53.127Z,12.46
2022-08-29T00:56:53.134Z,12.35
2022-08-29T01:01:53.107Z,12.28
2022-08-29T01:06:53.990Z,12.19
2022-08-29T01:11:52.839Z,12.12
2022-08-29T01:16:52.975Z,12.04
2022-08-29T01:21:52.740Z,11.96
2022-08-29T01:26:52.676Z,11.82
2022-08-29T01:31:57.137Z,11.75
2022-08-29T01:36:53.570Z,11.70
2022-08-29T01:41:52.679Z,11.69
2022-08-29T01:46:53.586Z,11.64
2022-08-29T01:51:52.504Z,11.60
2022-08-29T01:56:52.353Z,11.52
2022-08-29T02:01:52.488Z,11.49
2022-08-29T02:06:52.256Z,11.42
2022-08-29T02:11:52.206Z,11.37
2022-08-29T02:16:52.215Z,11.32
2022-08-29T02:21:52.143Z,11.25
2022-08-29T02:26:52.193Z,11.22
2022-08-29T02:31:52.002Z,11.19
2022-08-29T02:36:52.063Z,11.14
2022-08-29T02:41:51.860Z,11.09
2022-08-29T02:46:51.920Z,11.06
2022-08-29T02:51:51.749Z,11.02
2022-08-29T02:56:51.703Z,10.99
2022-08-29T03:01:51.845Z,10.97
2022-08-29T03:06:51.597Z,10.89
2022-08-29T03:11:51.651Z,10.86
2022-08-29T03:16:51.597Z,10.82
2022-08-29T03:21:51.518Z,10.81
2022-08-29T03:26:54.521Z,10.73
2022-08-29T03:31:52.356Z,10.68
2022-08-29T03:36:51.267Z,10.64
2022-08-29T03:41:51.227Z,10.61
2022-08-29T03:46:51.212Z,10.55
2022-08-29T03:51:51.277Z,10.55
2022-08-29T03:56:51.066Z,10.52
2022-08-29T04:01:51.199Z,10.51
2022-08-29T04:06:51.105Z,10.45
2022-08-29T04:11:50.895Z,10.42
2022-08-29T04:16:50.844Z,10.42
2022-08-29T04:21:50.804Z,10.40
2022-08-29T04:26:50.733Z,10.40
2022-08-29T04:31:50.682Z,10.34
2022-08-29T04:36:50.631Z,10.32
2022-08-29T04:41:50.575Z,10.32
2022-08-29T04:46:50.567Z,10.30
2022-08-29T04:51:50.538Z,10.32
2022-08-29T04:56:50.388Z,10.32
2022-08-29T05:01:50.433Z,10.34
2022-08-29T05:06:50.298Z,10.38
2022-08-29T05:11:50.285Z,10.40
2022-08-29T05:16:50.244Z,10.51
2022-08-29T05:21:53.642Z,10.63
2022-08-29T05:26:50.065Z,10.74
2022-08-29T05:31:50.034Z,10.84
2022-08-29T05:36:49.976Z,10.89
2022-08-29T05:41:49.925Z,10.99
2022-08-29T05:46:49.865Z,11.09
2022-08-29T05:51:49.814Z,11.25
2022-08-29T05:56:49.780Z,11.39
2022-08-29T06:01:49.700Z,11.55
2022-08-29T06:06:49.631Z,11.61
2022-08-29T06:11:58.911Z,11.91
2022-08-29T06:16:49.643Z,12.13
2022-08-29T06:21:49.480Z,12.39
2022-08-29T06:26:49.418Z,12.71
2022-08-29T06:31:49.373Z,13.10
2022-08-29T06:36:49.499Z,13.60
2022-08-29T06:41:49.248Z,13.99
2022-08-29T06:46:49.279Z,14.18
2022-08-29T06:51:49.210Z,14.39
2022-08-29T06:56:49.148Z,14.52
2022-08-29T07:01:49.218Z,14.80
2022-08-29T07:06:49.014Z,15.07
2022-08-29T07:11:48.944Z,15.28
2022-08-29T07:16:48.867Z,15.47
2022-08-29T07:21:48.821Z,15.67
2022-08-29T07:26:48.901Z,15.96
2022-08-29T07:31:48.848Z,16.34
2022-08-29T07:36:48.675Z,16.75
2022-08-29T07:41:48.724Z,17.00
2022-08-29T07:46:48.642Z,17.37
2022-08-29T07:51:48.702Z,18.03
2022-08-29T07:56:48.444Z,18.02
2022-08-29T08:01:48.430Z,18.30
2022-08-29T08:06:48.414Z,18.37
2022-08-29T08:11:48.363Z,18.67
2022-08-29T08:16:49.337Z,18.98
2022-08-29T08:21:49.833Z,19.32
2022-08-29T08:26:48.295Z,19.47
2022-08-29T08:31:48.089Z,19.78
2022-08-29T08:36:48.095Z,20.32
2022-08-29T08:41:47.970Z,20.29
2022-08-29T08:46:47.942Z,20.29
2022-08-29T08:51:47.858Z,20.14
2022-08-29T08:56:47.807Z,20.03
2022-08-29T09:01:47.854Z,19.98
2022-08-29T09:06:47.725Z,20.10
2022-08-29T09:11:47.736Z,20.29
2022-08-29T09:16:47.839Z,20.58
2022-08-29T09:21:47.533Z,21.10
2022-08-29T09:26:47.482Z,21.32
2022-08-29T09:31:47.523Z,21.40
2022-08-29T09:36:47.722Z,21.84
2022-08-29T09:41:47.380Z,22.52
2022-08-29T09:46:47.311Z,22.27
2022-08-29T09:51:47.257Z,21.71
2022-08-29T09:56:47.303Z,21.59
2022-08-29T10:01:47.281Z,22.36
2022-08-29T10:06:52.078Z,22.86
2022-08-29T10:11:49.927Z,23.19
2022-08-29T10:16:48.062Z,22.73
2022-08-29T10:21:46.931Z,22.49
2022-08-29T10:26:46.938Z,23.25
2022-08-29T10:31:47.050Z,23.33
2022-08-29T10:36:46.801Z,23.78
2022-08-29T10:41:50.284Z,23.87
2022-08-29T10:46:46.697Z,23.76
2022-08-29T10:51:46.635Z,23.55
2022-08-29T10:56:46.573Z,23.31
2022-08-29T11:01:46.618Z,23.48
2022-08-29T11:06:49.916Z,23.25
2022-08-29T11:11:46.430Z,23.93
2022-08-29T11:16:46.509Z,23.55
2022-08-29T11:21:46.376Z,23.39
2022-08-29T11:26:46.302Z,23.46
2022-08-29T11:31:46.311Z,23.33
2022-08-29T11:36:46.172Z,22.30
2022-08-29T11:41:46.300Z,22.62
2022-08-29T11:46:46.700Z,23.31
2022-08-29T11:51:46.109Z,24.03
2022-08-29T11:56:45.993Z,24.32
2022-08-29T12:01:45.990Z,24.53
2022-08-29T12:06:45.877Z,24.39
2022-08-29T12:11:52.991Z,24.31
2022-08-29T12:16:45.882Z,24.49
2022-08-29T12:21:45.741Z,24.58
2022-08-29T12:26:45.785Z,24.55
2022-08-29T12:31:56.762Z,24.96
2022-08-29T12:36:52.185Z,25.09
2022-08-29T12:41:46.625Z,24.39
2022-08-29T12:46:45.561Z,24.40
2022-08-29T12:51:45.459Z,24.76
2022-08-29T12:56:46.492Z,24.98
2022-08-29T13:01:45.367Z,24.83
2022-08-29T13:06:45.310Z,24.68
2022-08-29T13:11:45.282Z,24.50
2022-08-29T13:16:45.212Z,24.62
2022-08-29T13:21:45.186Z,24.50
2022-08-29T13:26:50.430Z,24.73
2022-08-29T13:31:46.272Z,25.14
2022-08-29T13:36:45.110Z,25.13
2022-08-29T13:41:45.028Z,25.06
2022-08-29T13:46:45.048Z,25.02
2022-08-29T13:51:45.011Z,24.95
2022-08-29T13:56:44.830Z,24.88
2022-08-29T14:06:45.739Z,24.78
2022-08-29T14:11:44.788Z,24.81
2022-08-29T14:16:44.809Z,24.45
2022-08-29T14:21:44.769Z,24.40
2022-08-29T14:26:44.661Z,24.60
2022-08-29T14:31:44.620Z,24.12
2022-08-29T14:36:49.093Z,24.16
2022-08-29T14:41:44.393Z,24.12
2022-08-29T14:46:44.389Z,24.09
2022-08-29T14:51:44.407Z,24.02
2022-08-29T14:56:48.572Z,23.93
2022-08-29T15:01:52.666Z,23.83
2022-08-29T15:06:45.250Z,23.76
2022-08-29T15:11:44.249Z,23.78
2022-08-29T15:16:44.178Z,23.69
2022-08-29T15:21:44.115Z,23.79
2022-08-29T15:26:44.047Z,23.66
2022-08-29T15:31:43.903Z,23.72
2022-08-29T15:36:43.870Z,23.58
2022-08-29T15:41:43.784Z,23.54
2022-08-29T15:46:50.787Z,23.48
2022-08-29T15:51:44.717Z,23.42
2022-08-29T15:56:43.634Z,23.42
2022-08-29T16:01:43.731Z,23.39
2022-08-29T16:06:43.637Z,23.35
2022-08-29T16:11:43.485Z,23.28
2022-08-29T16:16:43.403Z,23.35
2022-08-29T16:21:44.452Z,23.38
2022-08-29T16:26:45.748Z,23.31
2022-08-29T16:31:43.257Z,23.19
2022-08-29T16:36:43.168Z,23.20
2022-08-29T16:41:43.194Z,23.13
2022-08-29T16:46:43.151Z,23.05
2022-08-29T16:51:43.074Z,23.00
2022-08-29T16:56:43.005Z,23.04
2022-08-29T17:01:43.043Z,23.00
2022-08-29T17:06:42.875Z,22.91
2022-08-29T17:11:42.816Z,22.91
2022-08-29T17:16:42.768Z,22.90
2022-08-29T17:21:46.087Z,22.75
2022-08-29T17:26:42.697Z,22.65
2022-08-29T17:31:42.697Z,22.46
2022-08-29T17:36:42.526Z,22.28
2022-08-29T17:41:44.495Z,22.17
2022-08-29T17:46:42.429Z,22.05
2022-08-29T17:51:42.381Z,22.15
2022-08-29T17:56:44.535Z,22.03
2022-08-29T18:01:42.342Z,21.79
2022-08-29T18:06:42.198Z,21.56
2022-08-29T18:11:42.212Z,21.40
2022-08-29T18:16:51.056Z,21.24
2022-08-29T18:21:43.293Z,20.94
2022-08-29T18:26:42.035Z,20.70
2022-08-29T18:31:42.066Z,20.43
2022-08-29T18:36:41.914Z,20.26
2022-08-29T18:41:41.904Z,20.11
2022-08-29T18:46:41.865Z,19.94
2022-08-29T18:51:42.848Z,19.71
2022-08-29T18:56:41.756Z,19.55
2022-08-29T19:01:41.811Z,19.40
2022-08-29T19:06:41.617Z,19.23
2022-08-29T19:11:41.606Z,19.14
2022-08-29T19:16:41.547Z,19.04
2022-08-29T19:21:41.531Z,18.90
2022-08-29T19:26:41.477Z,18.72
2022-08-29T19:31:41.520Z,18.60
2022-08-29T19:36:41.459Z,18.51
2022-08-29T19:41:41.342Z,18.37
2022-08-29T19:46:46.001Z,18.29
2022-08-29T19:51:42.287Z,18.26
2022-08-29T19:56:41.402Z,18.12
2022-08-29T20:01:46.097Z,18.03
2022-08-29T20:06:41.016Z,17.92
2022-08-29T20:11:43.667Z,17.81
2022-08-29T20:16:40.991Z,17.68
2022-08-29T20:21:40.894Z,17.63
2022-08-29T20:26:40.748Z,17.52
2022-08-29T20:31:40.824Z,17.40
2022-08-29T20:36:40.639Z,17.33
2022-08-29T20:41:40.595Z,17.28
2022-08-29T20:46:40.773Z,17.26
2022-08-29T20:51:40.511Z,17.33
2022-08-29T20:56:40.431Z,17.30
2022-08-29T21:01:40.512Z,17.19
2022-08-29T21:06:40.311Z,17.08
2022-08-29T21:11:41.397Z,17.07
2022-08-29T21:16:40.353Z,17.03
2022-08-29T21:21:40.222Z,16.98
2022-08-29T21:26:40.081Z,16.93
2022-08-29T21:31:40.108Z,16.86
2022-08-29T21:36:39.976Z,16.83
2022-08-29T21:41:39.960Z,16.76
2022-08-29T21:46:39.982Z,16.68
2022-08-29T21:51:39.891Z,16.67
2022-08-29T21:56:39.823Z,16.78
2022-08-29T22:01:39.751Z,16.70
2022-08-29T22:06:39.703Z,16.66
2022-08-29T22:11:39.617Z,16.53
2022-08-29T22:16:39.550Z,16.42
2022-08-29T22:21:39.520Z,16.35
2022-08-29T22:26:39.440Z,16.31
2022-08-29T22:31:39.415Z,16.31
2022-08-29T22:36:39.295Z,16.38
2022-08-29T22:41:39.714Z,16.35
2022-08-29T22:46:39.380Z,16.38
2022-08-29T22:51:39.259Z,16.39
2022-08-29T22:56:40.144Z,16.42
2022-08-29T23:01:39.102Z,16.46
2022-08-29T23:06:39.035Z,16.43
2022-08-29T23:11:38.948Z,16.34
2022-08-29T23:16:38.861Z,16.30
2022-08-29T23:21:40.112Z,16.28
2022-08-29T23:26:38.785Z,16.25
2022-08-29T23:31:38.891Z,16.17
2022-08-29T23:36:38.713Z,16.11
2022-08-29T23:41:38.652Z,16.07
2022-08-29T23:46:38.740Z,16.07
2022-08-29T23:51:38.514Z,16.11
2022-08-29T23:56:38.469Z,16.14
